Fairbury, Illinois
Current Conditions -  °F | °C
As of 6:55 PM on Wednesday 22 Oct 2014 (Local Time) from KPNT Reporting Station
Clear Clear  
Wind Chill: 39°   Ceiling: Unl
Heat Index: 43°   Visibility: 10mi
Dew Point: 34°   Wind: 6mph
Humidity: 72%   Direction: 100°E
Pressure: 30.25"   Gusts: NA
Location:  40.75°N, 88.51°W
Report Text: KPNT 222355Z AUTO 10005KT 10SM CLR 06/01 A3025 RMK AO2 T00610013 10152 20060
Loading
Personal Weather Stations






























Interactive Weather Map New forecast layout! Learn more

10-Day Weather Forecast

Advertisements
Track Severe Weather on mobile